sensor_id;sensor_type;location;lat;lon;timestamp;P1;durP1;ratioP1;P2;durP2;ratioP2
51495;SDS011;37572;52.094;4.870;2023-02-11T00:01:23;15.68;;;3.90;;
51495;SDS011;37572;52.094;4.870;2023-02-11T00:03:49;16.77;;;3.55;;
51495;SDS011;37572;52.094;4.870;2023-02-11T00:06:14;12.93;;;3.93;;
51495;SDS011;37572;52.094;4.870;2023-02-11T00:08:39;13.60;;;3.90;;
51495;SDS011;37572;52.094;4.870;2023-02-11T00:11:05;12.20;;;3.07;;
51495;SDS011;37572;52.094;4.870;2023-02-11T00:13:30;11.07;;;3.87;;
51495;SDS011;37572;52.094;4.870;2023-02-11T00:15:55;18.80;;;3.60;;
51495;SDS011;37572;52.094;4.870;2023-02-11T00:18:21;10.50;;;3.80;;
51495;SDS011;37572;52.094;4.870;2023-02-11T00:20:46;13.80;;;3.35;;
51495;SDS011;37572;52.094;4.870;2023-02-11T00:23:11;18.90;;;3.70;;
51495;SDS011;37572;52.094;4.870;2023-02-11T00:25:40;16.93;;;4.13;;
51495;SDS011;37572;52.094;4.870;2023-02-11T00:28:05;18.30;;;3.70;;
51495;SDS011;37572;52.094;4.870;2023-02-11T00:30:31;19.40;;;4.60;;
51495;SDS011;37572;52.094;4.870;2023-02-11T00:32:56;19.13;;;4.50;;
51495;SDS011;37572;52.094;4.870;2023-02-11T00:35:21;12.97;;;3.50;;
51495;SDS011;37572;52.094;4.870;2023-02-11T00:37:47;12.65;;;3.45;;
51495;SDS011;37572;52.094;4.870;2023-02-11T00:40:12;18.07;;;4.47;;
51495;SDS011;37572;52.094;4.870;2023-02-11T00:42:39;12.95;;;3.67;;
51495;SDS011;37572;52.094;4.870;2023-02-11T00:45:05;11.67;;;3.60;;
51495;SDS011;37572;52.094;4.870;2023-02-11T00:47:30;12.55;;;3.40;;
51495;SDS011;37572;52.094;4.870;2023-02-11T00:49:55;12.53;;;3.80;;
51495;SDS011;37572;52.094;4.870;2023-02-11T00:52:20;12.37;;;3.67;;
51495;SDS011;37572;52.094;4.870;2023-02-11T00:54:46;13.53;;;3.90;;
51495;SDS011;37572;52.094;4.870;2023-02-11T00:57:11;16.30;;;4.80;;
51495;SDS011;37572;52.094;4.870;2023-02-11T00:59:36;17.47;;;4.17;;
51495;SDS011;37572;52.094;4.870;2023-02-11T01:02:01;14.43;;;3.47;;
51495;SDS011;37572;52.094;4.870;2023-02-11T01:04:26;13.03;;;3.87;;
51495;SDS011;37572;52.094;4.870;2023-02-11T01:06:52;19.57;;;3.67;;
51495;SDS011;37572;52.094;4.870;2023-02-11T01:09:17;17.87;;;4.73;;
51495;SDS011;37572;52.094;4.870;2023-02-11T01:11:43;14.48;;;3.72;;
51495;SDS011;37572;52.094;4.870;2023-02-11T01:14:08;14.50;;;3.73;;
51495;SDS011;37572;52.094;4.870;2023-02-11T01:16:34;16.07;;;4.17;;
51495;SDS011;37572;52.094;4.870;2023-02-11T01:18:59;16.43;;;3.80;;
51495;SDS011;37572;52.094;4.870;2023-02-11T01:21:24;12.70;;;4.30;;
51495;SDS011;37572;52.094;4.870;2023-02-11T01:23:49;11.70;;;4.05;;
51495;SDS011;37572;52.094;4.870;2023-02-11T01:26:14;12.83;;;4.13;;
51495;SDS011;37572;52.094;4.870;2023-02-11T01:28:40;15.00;;;3.97;;
51495;SDS011;37572;52.094;4.870;2023-02-11T01:31:05;10.30;;;3.87;;
51495;SDS011;37572;52.094;4.870;2023-02-11T01:33:30;12.97;;;4.43;;
51495;SDS011;37572;52.094;4.870;2023-02-11T01:35:58;19.37;;;4.83;;
51495;SDS011;37572;52.094;4.870;2023-02-11T01:38:24;16.02;;;4.20;;
51495;SDS011;37572;52.094;4.870;2023-02-11T01:40:54;14.52;;;5.00;;
51495;SDS011;37572;52.094;4.870;2023-02-11T01:43:20;16.98;;;5.88;;
51495;SDS011;37572;52.094;4.870;2023-02-11T01:48:17;9.20;;;4.32;;
51495;SDS011;37572;52.094;4.870;2023-02-11T01:50:44;11.48;;;3.95;;
51495;SDS011;37572;52.094;4.870;2023-02-11T01:53:12;11.23;;;4.82;;
51495;SDS011;37572;52.094;4.870;2023-02-11T01:55:56;13.93;;;3.97;;
51495;SDS011;37572;52.094;4.870;2023-02-11T02:01:05;13.68;;;4.05;;
51495;SDS011;37572;52.094;4.870;2023-02-11T02:03:32;15.48;;;4.18;;
51495;SDS011;37572;52.094;4.870;2023-02-11T02:10:53;14.70;;;4.07;;
51495;SDS011;37572;52.094;4.870;2023-02-11T02:13:20;16.52;;;4.60;;
51495;SDS011;37572;52.094;4.870;2023-02-11T02:15:49;13.63;;;4.88;;
51495;SDS011;37572;52.094;4.870;2023-02-11T02:18:26;13.38;;;4.57;;
51495;SDS011;37572;52.094;4.870;2023-02-11T02:26:28;14.48;;;4.35;;
51495;SDS011;37572;52.094;4.870;2023-02-11T02:34:35;11.55;;;3.95;;
51495;SDS011;37572;52.094;4.870;2023-02-11T02:39:27;17.63;;;5.32;;
51495;SDS011;37572;52.094;4.870;2023-02-11T02:41:55;15.88;;;4.28;;
51495;SDS011;37572;52.094;4.870;2023-02-11T02:44:20;19.63;;;5.57;;
51495;SDS011;37572;52.094;4.870;2023-02-11T02:46:46;11.13;;;4.63;;
51495;SDS011;37572;52.094;4.870;2023-02-11T02:49:11;16.23;;;4.40;;
51495;SDS011;37572;52.094;4.870;2023-02-11T02:51:41;18.08;;;5.68;;
51495;SDS011;37572;52.094;4.870;2023-02-11T02:57:36;15.93;;;5.22;;
51495;SDS011;37572;52.094;4.870;2023-02-11T03:07:12;14.10;;;4.82;;
51495;SDS011;37572;52.094;4.870;2023-02-11T03:09:44;18.35;;;4.90;;
51495;SDS011;37572;52.094;4.870;2023-02-11T03:12:09;18.00;;;5.45;;
51495;SDS011;37572;52.094;4.870;2023-02-11T03:14:35;13.80;;;4.90;;
51495;SDS011;37572;52.094;4.870;2023-02-11T03:17:03;13.38;;;4.78;;
51495;SDS011;37572;52.094;4.870;2023-02-11T03:19:29;19.33;;;6.38;;
51495;SDS011;37572;52.094;4.870;2023-02-11T03:21:55;16.10;;;6.50;;
51495;SDS011;37572;52.094;4.870;2023-02-11T03:24:32;19.33;;;6.55;;
51495;SDS011;37572;52.094;4.870;2023-02-11T03:27:00;14.48;;;5.80;;
51495;SDS011;37572;52.094;4.870;2023-02-11T03:32:00;21.75;;;6.30;;
51495;SDS011;37572;52.094;4.870;2023-02-11T03:37:27;21.13;;;6.70;;
51495;SDS011;37572;52.094;4.870;2023-02-11T03:39:56;16.35;;;6.93;;
51495;SDS011;37572;52.094;4.870;2023-02-11T03:42:25;15.70;;;5.88;;
51495;SDS011;37572;52.094;4.870;2023-02-11T03:44:56;21.77;;;7.10;;
51495;SDS011;37572;52.094;4.870;2023-02-11T03:47:23;14.98;;;6.60;;
51495;SDS011;37572;52.094;4.870;2023-02-11T03:49:50;16.33;;;6.35;;
51495;SDS011;37572;52.094;4.870;2023-02-11T03:52:17;22.98;;;6.75;;
51495;SDS011;37572;52.094;4.870;2023-02-11T03:54:42;20.38;;;7.35;;
51495;SDS011;37572;52.094;4.870;2023-02-11T03:57:08;24.60;;;6.35;;
51495;SDS011;37572;52.094;4.870;2023-02-11T04:02:35;22.25;;;7.00;;
51495;SDS011;37572;52.094;4.870;2023-02-11T04:05:00;22.63;;;8.07;;
51495;SDS011;37572;52.094;4.870;2023-02-11T04:07:26;20.50;;;7.22;;
51495;SDS011;37572;52.094;4.870;2023-02-11T04:09:51;25.10;;;10.10;;
51495;SDS011;37572;52.094;4.870;2023-02-11T04:12:17;20.25;;;7.45;;
51495;SDS011;37572;52.094;4.870;2023-02-11T04:14:42;23.70;;;8.90;;
51495;SDS011;37572;52.094;4.870;2023-02-11T04:17:07;20.97;;;8.37;;
51495;SDS011;37572;52.094;4.870;2023-02-11T04:19:33;26.40;;;8.80;;
51495;SDS011;37572;52.094;4.870;2023-02-11T04:21:58;25.77;;;9.63;;
51495;SDS011;37572;52.094;4.870;2023-02-11T04:24:23;22.57;;;9.27;;
51495;SDS011;37572;52.094;4.870;2023-02-11T04:26:48;21.30;;;7.60;;
51495;SDS011;37572;52.094;4.870;2023-02-11T04:29:13;21.00;;;9.30;;
51495;SDS011;37572;52.094;4.870;2023-02-11T04:31:39;20.07;;;9.43;;
51495;SDS011;37572;52.094;4.870;2023-02-11T04:34:04;25.93;;;9.73;;
51495;SDS011;37572;52.094;4.870;2023-02-11T04:36:29;26.13;;;9.37;;
51495;SDS011;37572;52.094;4.870;2023-02-11T04:38:54;24.80;;;9.20;;
51495;SDS011;37572;52.094;4.870;2023-02-11T04:41:20;21.03;;;9.50;;
51495;SDS011;37572;52.094;4.870;2023-02-11T04:43:45;18.80;;;8.43;;
51495;SDS011;37572;52.094;4.870;2023-02-11T04:46:10;22.60;;;8.93;;
51495;SDS011;37572;52.094;4.870;2023-02-11T04:48:35;23.07;;;9.27;;
51495;SDS011;37572;52.094;4.870;2023-02-11T04:51:01;23.87;;;8.17;;
51495;SDS011;37572;52.094;4.870;2023-02-11T04:53:26;22.58;;;8.80;;
51495;SDS011;37572;52.094;4.870;2023-02-11T04:55:51;27.87;;;9.87;;
51495;SDS011;37572;52.094;4.870;2023-02-11T04:58:17;22.50;;;9.67;;
51495;SDS011;37572;52.094;4.870;2023-02-11T05:00:42;22.17;;;10.18;;
51495;SDS011;37572;52.094;4.870;2023-02-11T05:03:07;23.37;;;9.67;;
51495;SDS011;37572;52.094;4.870;2023-02-11T05:05:32;24.93;;;10.80;;
51495;SDS011;37572;52.094;4.870;2023-02-11T05:07:57;26.93;;;11.30;;
51495;SDS011;37572;52.094;4.870;2023-02-11T05:10:23;27.43;;;11.23;;
51495;SDS011;37572;52.094;4.870;2023-02-11T05:12:48;22.77;;;9.67;;
51495;SDS011;37572;52.094;4.870;2023-02-11T05:15:13;27.00;;;9.70;;
51495;SDS011;37572;52.094;4.870;2023-02-11T05:17:38;27.37;;;9.77;;
51495;SDS011;37572;52.094;4.870;2023-02-11T05:20:04;24.70;;;10.07;;
51495;SDS011;37572;52.094;4.870;2023-02-11T05:22:29;30.38;;;10.68;;
51495;SDS011;37572;52.094;4.870;2023-02-11T05:24:54;21.57;;;9.73;;
51495;SDS011;37572;52.094;4.870;2023-02-11T05:27:20;26.23;;;10.63;;
51495;SDS011;37572;52.094;4.870;2023-02-11T05:29:45;22.70;;;9.03;;
51495;SDS011;37572;52.094;4.870;2023-02-11T05:32:10;24.37;;;9.97;;
51495;SDS011;37572;52.094;4.870;2023-02-11T05:34:37;20.90;;;10.82;;
51495;SDS011;37572;52.094;4.870;2023-02-11T05:37:02;30.67;;;10.82;;
51495;SDS011;37572;52.094;4.870;2023-02-11T05:39:27;23.67;;;12.50;;
51495;SDS011;37572;52.094;4.870;2023-02-11T05:41:53;24.37;;;10.23;;
51495;SDS011;37572;52.094;4.870;2023-02-11T05:44:18;27.90;;;11.07;;
51495;SDS011;37572;52.094;4.870;2023-02-11T05:46:43;29.60;;;12.00;;
51495;SDS011;37572;52.094;4.870;2023-02-11T05:49:08;29.90;;;11.20;;
51495;SDS011;37572;52.094;4.870;2023-02-11T05:51:33;22.13;;;11.17;;
51495;SDS011;37572;52.094;4.870;2023-02-11T05:53:59;26.57;;;11.37;;
51495;SDS011;37572;52.094;4.870;2023-02-11T05:56:24;31.17;;;10.73;;
51495;SDS011;37572;52.094;4.870;2023-02-11T05:58:49;27.50;;;10.63;;
51495;SDS011;37572;52.094;4.870;2023-02-11T06:01:14;34.80;;;14.40;;
51495;SDS011;37572;52.094;4.870;2023-02-11T06:03:39;26.77;;;12.67;;
51495;SDS011;37572;52.094;4.870;2023-02-11T06:06:08;35.17;;;12.57;;
51495;SDS011;37572;52.094;4.870;2023-02-11T06:08:33;30.63;;;12.60;;
51495;SDS011;37572;52.094;4.870;2023-02-11T06:10:58;33.00;;;14.40;;
51495;SDS011;37572;52.094;4.870;2023-02-11T06:13:23;34.00;;;13.20;;
51495;SDS011;37572;52.094;4.870;2023-02-11T06:15:55;25.07;;;11.47;;
51495;SDS011;37572;52.094;4.870;2023-02-11T06:20:45;28.67;;;12.48;;
51495;SDS011;37572;52.094;4.870;2023-02-11T06:23:10;32.30;;;14.40;;
51495;SDS011;37572;52.094;4.870;2023-02-11T06:25:36;38.37;;;14.97;;
51495;SDS011;37572;52.094;4.870;2023-02-11T06:28:01;39.50;;;15.87;;
51495;SDS011;37572;52.094;4.870;2023-02-11T06:30:26;46.13;;;17.00;;
51495;SDS011;37572;52.094;4.870;2023-02-11T06:32:51;41.03;;;16.50;;
51495;SDS011;37572;52.094;4.870;2023-02-11T06:35:16;41.33;;;17.97;;
51495;SDS011;37572;52.094;4.870;2023-02-11T06:37:42;37.37;;;16.57;;
51495;SDS011;37572;52.094;4.870;2023-02-11T06:40:07;47.33;;;18.52;;
51495;SDS011;37572;52.094;4.870;2023-02-11T06:42:33;38.10;;;17.23;;
51495;SDS011;37572;52.094;4.870;2023-02-11T06:45:00;45.75;;;18.85;;
51495;SDS011;37572;52.094;4.870;2023-02-11T06:47:25;38.53;;;17.23;;
51495;SDS011;37572;52.094;4.870;2023-02-11T06:49:50;38.83;;;15.93;;
51495;SDS011;37572;52.094;4.870;2023-02-11T06:52:15;36.73;;;16.67;;
51495;SDS011;37572;52.094;4.870;2023-02-11T06:54:40;39.10;;;17.47;;
51495;SDS011;37572;52.094;4.870;2023-02-11T06:57:05;36.30;;;15.80;;
51495;SDS011;37572;52.094;4.870;2023-02-11T06:59:31;48.73;;;18.53;;
51495;SDS011;37572;52.094;4.870;2023-02-11T07:01:56;35.97;;;16.20;;
51495;SDS011;37572;52.094;4.870;2023-02-11T07:04:21;37.03;;;14.67;;
51495;SDS011;37572;52.094;4.870;2023-02-11T07:06:46;30.45;;;15.73;;
51495;SDS011;37572;52.094;4.870;2023-02-11T07:09:11;35.13;;;14.87;;
51495;SDS011;37572;52.094;4.870;2023-02-11T07:11:37;34.73;;;13.50;;
51495;SDS011;37572;52.094;4.870;2023-02-11T07:14:03;35.43;;;15.67;;
51495;SDS011;37572;52.094;4.870;2023-02-11T07:16:28;33.55;;;14.68;;
51495;SDS011;37572;52.094;4.870;2023-02-11T07:18:55;35.33;;;15.52;;
51495;SDS011;37572;52.094;4.870;2023-02-11T07:21:21;35.80;;;15.38;;
51495;SDS011;37572;52.094;4.870;2023-02-11T07:23:48;35.40;;;16.17;;
51495;SDS011;37572;52.094;4.870;2023-02-11T07:26:14;35.63;;;15.77;;
51495;SDS011;37572;52.094;4.870;2023-02-11T07:28:40;37.35;;;16.98;;
51495;SDS011;37572;52.094;4.870;2023-02-11T07:31:09;32.55;;;15.77;;
51495;SDS011;37572;52.094;4.870;2023-02-11T07:33:35;34.47;;;15.10;;
51495;SDS011;37572;52.094;4.870;2023-02-11T07:36:00;36.05;;;15.38;;
51495;SDS011;37572;52.094;4.870;2023-02-11T07:38:26;43.30;;;16.60;;
51495;SDS011;37572;52.094;4.870;2023-02-11T07:40:51;38.60;;;17.10;;
51495;SDS011;37572;52.094;4.870;2023-02-11T07:43:16;37.75;;;16.73;;
51495;SDS011;37572;52.094;4.870;2023-02-11T07:45:42;41.27;;;16.53;;
51495;SDS011;37572;52.094;4.870;2023-02-11T07:48:07;33.83;;;15.20;;
51495;SDS011;37572;52.094;4.870;2023-02-11T07:50:32;33.43;;;16.53;;
51495;SDS011;37572;52.094;4.870;2023-02-11T07:52:57;42.00;;;16.97;;
51495;SDS011;37572;52.094;4.870;2023-02-11T07:55:22;43.73;;;18.80;;
51495;SDS011;37572;52.094;4.870;2023-02-11T07:57:47;38.83;;;17.73;;
51495;SDS011;37572;52.094;4.870;2023-02-11T08:00:13;37.80;;;16.73;;
51495;SDS011;37572;52.094;4.870;2023-02-11T08:02:38;40.30;;;16.23;;
51495;SDS011;37572;52.094;4.870;2023-02-11T08:05:03;40.50;;;16.97;;
51495;SDS011;37572;52.094;4.870;2023-02-11T08:07:29;37.53;;;16.07;;
51495;SDS011;37572;52.094;4.870;2023-02-11T08:09:54;39.83;;;18.70;;
51495;SDS011;37572;52.094;4.870;2023-02-11T08:12:19;36.97;;;16.50;;
51495;SDS011;37572;52.094;4.870;2023-02-11T08:14:44;39.03;;;17.17;;
51495;SDS011;37572;52.094;4.870;2023-02-11T08:17:10;38.77;;;17.57;;
51495;SDS011;37572;52.094;4.870;2023-02-11T08:19:35;41.43;;;18.43;;
51495;SDS011;37572;52.094;4.870;2023-02-11T08:22:01;41.05;;;18.02;;
51495;SDS011;37572;52.094;4.870;2023-02-11T08:24:26;39.65;;;18.23;;
51495;SDS011;37572;52.094;4.870;2023-02-11T08:26:51;42.30;;;18.67;;
51495;SDS011;37572;52.094;4.870;2023-02-11T08:29:16;45.17;;;20.70;;
51495;SDS011;37572;52.094;4.870;2023-02-11T08:31:43;38.90;;;19.37;;
51495;SDS011;37572;52.094;4.870;2023-02-11T08:34:08;41.80;;;19.23;;
51495;SDS011;37572;52.094;4.870;2023-02-11T08:36:35;44.80;;;19.10;;
51495;SDS011;37572;52.094;4.870;2023-02-11T08:39:02;38.78;;;17.88;;
51495;SDS011;37572;52.094;4.870;2023-02-11T08:41:29;41.40;;;16.70;;
51495;SDS011;37572;52.094;4.870;2023-02-11T08:43:54;38.67;;;16.77;;
51495;SDS011;37572;52.094;4.870;2023-02-11T08:46:19;39.92;;;17.08;;
51495;SDS011;37572;52.094;4.870;2023-02-11T08:48:45;39.50;;;17.40;;
51495;SDS011;37572;52.094;4.870;2023-02-11T08:51:13;38.90;;;18.73;;
51495;SDS011;37572;52.094;4.870;2023-02-11T08:53:38;39.25;;;17.45;;
51495;SDS011;37572;52.094;4.870;2023-02-11T08:56:03;37.10;;;17.00;;
51495;SDS011;37572;52.094;4.870;2023-02-11T08:58:29;43.72;;;18.00;;
51495;SDS011;37572;52.094;4.870;2023-02-11T09:00:54;39.87;;;17.73;;
51495;SDS011;37572;52.094;4.870;2023-02-11T09:03:19;38.37;;;17.87;;
51495;SDS011;37572;52.094;4.870;2023-02-11T09:05:45;37.40;;;17.00;;
51495;SDS011;37572;52.094;4.870;2023-02-11T09:08:11;35.78;;;16.30;;
51495;SDS011;37572;52.094;4.870;2023-02-11T09:10:36;37.70;;;17.65;;
51495;SDS011;37572;52.094;4.870;2023-02-11T09:13:02;35.40;;;18.02;;
51495;SDS011;37572;52.094;4.870;2023-02-11T09:15:27;39.45;;;18.38;;
51495;SDS011;37572;52.094;4.870;2023-02-11T09:17:52;40.83;;;19.40;;
51495;SDS011;37572;52.094;4.870;2023-02-11T09:20:18;41.60;;;17.53;;
51495;SDS011;37572;52.094;4.870;2023-02-11T09:22:43;40.90;;;18.87;;
51495;SDS011;37572;52.094;4.870;2023-02-11T09:25:08;35.63;;;18.23;;
51495;SDS011;37572;52.094;4.870;2023-02-11T09:27:33;39.42;;;20.00;;
51495;SDS011;37572;52.094;4.870;2023-02-11T09:29:58;41.77;;;20.53;;
51495;SDS011;37572;52.094;4.870;2023-02-11T09:32:24;40.80;;;21.43;;
51495;SDS011;37572;52.094;4.870;2023-02-11T09:34:49;44.77;;;21.83;;
51495;SDS011;37572;52.094;4.870;2023-02-11T09:37:14;37.33;;;19.30;;
51495;SDS011;37572;52.094;4.870;2023-02-11T09:39:39;44.23;;;21.80;;
51495;SDS011;37572;52.094;4.870;2023-02-11T09:42:09;38.93;;;17.87;;
51495;SDS011;37572;52.094;4.870;2023-02-11T09:44:43;36.08;;;16.52;;
51495;SDS011;37572;52.094;4.870;2023-02-11T09:47:17;33.85;;;16.48;;
51495;SDS011;37572;52.094;4.870;2023-02-11T09:49:49;32.13;;;14.48;;
51495;SDS011;37572;52.094;4.870;2023-02-11T09:55:00;32.60;;;16.83;;
51495;SDS011;37572;52.094;4.870;2023-02-11T09:57:28;30.90;;;15.70;;
51495;SDS011;37572;52.094;4.870;2023-02-11T09:59:55;26.45;;;13.25;;
51495;SDS011;37572;52.094;4.870;2023-02-11T10:07:33;33.63;;;16.17;;
51495;SDS011;37572;52.094;4.870;2023-02-11T10:13:01;24.20;;;13.18;;
51495;SDS011;37572;52.094;4.870;2023-02-11T10:15:45;26.42;;;12.40;;
51495;SDS011;37572;52.094;4.870;2023-02-11T10:23:26;23.73;;;12.55;;
51495;SDS011;37572;52.094;4.870;2023-02-11T10:25:54;24.88;;;11.27;;
51495;SDS011;37572;52.094;4.870;2023-02-11T10:28:21;22.17;;;10.75;;
51495;SDS011;37572;52.094;4.870;2023-02-11T10:30:51;25.50;;;11.10;;
51495;SDS011;37572;52.094;4.870;2023-02-11T10:33:30;22.42;;;11.35;;
51495;SDS011;37572;52.094;4.870;2023-02-11T10:38:23;19.95;;;9.30;;
51495;SDS011;37572;52.094;4.870;2023-02-11T10:40:48;18.55;;;10.23;;
51495;SDS011;37572;52.094;4.870;2023-02-11T10:43:15;21.33;;;9.27;;
51495;SDS011;37572;52.094;4.870;2023-02-11T10:45:44;19.00;;;9.93;;
51495;SDS011;37572;52.094;4.870;2023-02-11T10:53:32;17.60;;;8.35;;
51495;SDS011;37572;52.094;4.870;2023-02-11T10:55:59;14.32;;;8.00;;
51495;SDS011;37572;52.094;4.870;2023-02-11T10:58:29;16.58;;;8.60;;
51495;SDS011;37572;52.094;4.870;2023-02-11T11:00:55;16.15;;;7.95;;
51495;SDS011;37572;52.094;4.870;2023-02-11T11:03:31;15.70;;;9.18;;
51495;SDS011;37572;52.094;4.870;2023-02-11T11:05:58;14.27;;;7.20;;
51495;SDS011;37572;52.094;4.870;2023-02-11T11:08:36;16.33;;;8.07;;
51495;SDS011;37572;52.094;4.870;2023-02-11T11:11:06;13.00;;;7.60;;
51495;SDS011;37572;52.094;4.870;2023-02-11T11:13:36;16.40;;;7.95;;
51495;SDS011;37572;52.094;4.870;2023-02-11T11:16:14;18.80;;;9.20;;
51495;SDS011;37572;52.094;4.870;2023-02-11T11:18:40;17.35;;;8.63;;
51495;SDS011;37572;52.094;4.870;2023-02-11T11:21:15;13.27;;;7.28;;
51495;SDS011;37572;52.094;4.870;2023-02-11T11:23:46;13.50;;;8.63;;
51495;SDS011;37572;52.094;4.870;2023-02-11T11:26:12;13.88;;;7.63;;
51495;SDS011;37572;52.094;4.870;2023-02-11T11:28:38;11.38;;;7.43;;
51495;SDS011;37572;52.094;4.870;2023-02-11T11:31:10;12.77;;;6.90;;
51495;SDS011;37572;52.094;4.870;2023-02-11T11:36:08;13.93;;;6.72;;
51495;SDS011;37572;52.094;4.870;2023-02-11T11:38:35;13.30;;;7.88;;
51495;SDS011;37572;52.094;4.870;2023-02-11T11:41:14;11.80;;;6.13;;
51495;SDS011;37572;52.094;4.870;2023-02-11T11:43:42;11.60;;;6.93;;
51495;SDS011;37572;52.094;4.870;2023-02-11T11:46:20;12.35;;;7.03;;
51495;SDS011;37572;52.094;4.870;2023-02-11T11:48:46;12.75;;;6.82;;
51495;SDS011;37572;52.094;4.870;2023-02-11T11:51:14;10.30;;;5.72;;
51495;SDS011;37572;52.094;4.870;2023-02-11T11:53:44;10.90;;;6.95;;
51495;SDS011;37572;52.094;4.870;2023-02-11T11:58:40;11.93;;;7.60;;
51495;SDS011;37572;52.094;4.870;2023-02-11T12:01:19;12.60;;;7.18;;
51495;SDS011;37572;52.094;4.870;2023-02-11T12:06:29;13.57;;;6.68;;
51495;SDS011;37572;52.094;4.870;2023-02-11T12:09:10;14.32;;;6.82;;
51495;SDS011;37572;52.094;4.870;2023-02-11T12:14:28;10.88;;;7.82;;
51495;SDS011;37572;52.094;4.870;2023-02-11T12:17:05;8.38;;;5.57;;
51495;SDS011;37572;52.094;4.870;2023-02-11T12:19:45;10.80;;;6.10;;
51495;SDS011;37572;52.094;4.870;2023-02-11T12:24:52;10.40;;;6.57;;
51495;SDS011;37572;52.094;4.870;2023-02-11T12:29:59;11.68;;;5.82;;
51495;SDS011;37572;52.094;4.870;2023-02-11T12:34:55;10.23;;;6.13;;
51495;SDS011;37572;52.094;4.870;2023-02-11T12:37:42;10.82;;;5.82;;
51495;SDS011;37572;52.094;4.870;2023-02-11T12:40:18;9.40;;;6.05;;
51495;SDS011;37572;52.094;4.870;2023-02-11T12:45:45;8.43;;;5.68;;
51495;SDS011;37572;52.094;4.870;2023-02-11T12:48:26;10.57;;;5.97;;
51495;SDS011;37572;52.094;4.870;2023-02-11T12:51:04;9.48;;;5.75;;
51495;SDS011;37572;52.094;4.870;2023-02-11T12:53:40;10.30;;;6.18;;
51495;SDS011;37572;52.094;4.870;2023-02-11T12:56:13;10.07;;;5.07;;
51495;SDS011;37572;52.094;4.870;2023-02-11T12:58:38;7.38;;;5.00;;
51495;SDS011;37572;52.094;4.870;2023-02-11T13:01:07;7.63;;;5.20;;
51495;SDS011;37572;52.094;4.870;2023-02-11T13:03:41;9.50;;;6.32;;
51495;SDS011;37572;52.094;4.870;2023-02-11T13:06:14;10.77;;;5.28;;
51495;SDS011;37572;52.094;4.870;2023-02-11T13:08:46;9.48;;;5.70;;
51495;SDS011;37572;52.094;4.870;2023-02-11T13:11:14;9.18;;;4.90;;
51495;SDS011;37572;52.094;4.870;2023-02-11T13:16:53;8.18;;;5.47;;
51495;SDS011;37572;52.094;4.870;2023-02-11T13:24:03;9.18;;;4.93;;
51495;SDS011;37572;52.094;4.870;2023-02-11T13:29:14;7.75;;;4.30;;
51495;SDS011;37572;52.094;4.870;2023-02-11T13:31:40;7.10;;;4.53;;
51495;SDS011;37572;52.094;4.870;2023-02-11T13:39:59;8.52;;;4.47;;
51495;SDS011;37572;52.094;4.870;2023-02-11T13:42:25;7.53;;;4.68;;
51495;SDS011;37572;52.094;4.870;2023-02-11T13:44:51;11.23;;;5.05;;
51495;SDS011;37572;52.094;4.870;2023-02-11T13:47:49;7.30;;;4.50;;
51495;SDS011;37572;52.094;4.870;2023-02-11T13:50:19;9.13;;;5.22;;
51495;SDS011;37572;52.094;4.870;2023-02-11T13:52:45;8.18;;;4.93;;
51495;SDS011;37572;52.094;4.870;2023-02-11T13:57:36;6.47;;;4.05;;
51495;SDS011;37572;52.094;4.870;2023-02-11T14:00:06;9.35;;;5.05;;
51495;SDS011;37572;52.094;4.870;2023-02-11T14:03:16;6.63;;;3.97;;
51495;SDS011;37572;52.094;4.870;2023-02-11T14:06:09;11.27;;;4.90;;
51495;SDS011;37572;52.094;4.870;2023-02-11T14:09:04;11.35;;;5.45;;
51495;SDS011;37572;52.094;4.870;2023-02-11T14:16:26;10.23;;;4.87;;
51495;SDS011;37572;52.094;4.870;2023-02-11T14:21:23;9.68;;;5.45;;
51495;SDS011;37572;52.094;4.870;2023-02-11T14:29:21;8.63;;;4.95;;
51495;SDS011;37572;52.094;4.870;2023-02-11T14:37:03;8.63;;;4.97;;
51495;SDS011;37572;52.094;4.870;2023-02-11T14:42:20;10.93;;;4.95;;
51495;SDS011;37572;52.094;4.870;2023-02-11T14:44:49;9.20;;;4.05;;
51495;SDS011;37572;52.094;4.870;2023-02-11T14:47:19;7.32;;;4.63;;
51495;SDS011;37572;52.094;4.870;2023-02-11T14:49:45;8.27;;;5.13;;
51495;SDS011;37572;52.094;4.870;2023-02-11T14:52:15;7.97;;;4.25;;
51495;SDS011;37572;52.094;4.870;2023-02-11T14:54:43;7.57;;;4.53;;
51495;SDS011;37572;52.094;4.870;2023-02-11T14:57:15;8.15;;;4.13;;
51495;SDS011;37572;52.094;4.870;2023-02-11T14:59:51;6.95;;;4.28;;
51495;SDS011;37572;52.094;4.870;2023-02-11T15:02:19;9.05;;;4.68;;
51495;SDS011;37572;52.094;4.870;2023-02-11T15:04:45;8.75;;;4.95;;
51495;SDS011;37572;52.094;4.870;2023-02-11T15:07:14;6.82;;;4.43;;
51495;SDS011;37572;52.094;4.870;2023-02-11T15:09:43;7.85;;;4.78;;
51495;SDS011;37572;52.094;4.870;2023-02-11T15:12:14;7.57;;;4.65;;
51495;SDS011;37572;52.094;4.870;2023-02-11T15:14:44;9.40;;;4.53;;
51495;SDS011;37572;52.094;4.870;2023-02-11T15:17:11;7.50;;;4.97;;
51495;SDS011;37572;52.094;4.870;2023-02-11T15:19:38;7.55;;;4.65;;
51495;SDS011;37572;52.094;4.870;2023-02-11T15:22:26;11.77;;;5.28;;
51495;SDS011;37572;52.094;4.870;2023-02-11T15:25:24;7.95;;;4.07;;
51495;SDS011;37572;52.094;4.870;2023-02-11T15:27:51;9.65;;;4.82;;
51495;SDS011;37572;52.094;4.870;2023-02-11T15:35:14;7.85;;;4.25;;
51495;SDS011;37572;52.094;4.870;2023-02-11T15:37:39;8.47;;;5.50;;
51495;SDS011;37572;52.094;4.870;2023-02-11T15:40:13;8.77;;;4.67;;
51495;SDS011;37572;52.094;4.870;2023-02-11T15:42:39;9.40;;;5.15;;
51495;SDS011;37572;52.094;4.870;2023-02-11T15:45:16;8.70;;;4.60;;
51495;SDS011;37572;52.094;4.870;2023-02-11T15:47:52;8.35;;;5.30;;
51495;SDS011;37572;52.094;4.870;2023-02-11T15:50:21;7.72;;;4.97;;
51495;SDS011;37572;52.094;4.870;2023-02-11T15:52:47;9.20;;;5.03;;
51495;SDS011;37572;52.094;4.870;2023-02-11T15:55:13;8.80;;;5.15;;
51495;SDS011;37572;52.094;4.870;2023-02-11T15:57:48;9.23;;;5.03;;
51495;SDS011;37572;52.094;4.870;2023-02-11T16:00:15;9.88;;;5.10;;
51495;SDS011;37572;52.094;4.870;2023-02-11T16:02:43;11.07;;;5.18;;
51495;SDS011;37572;52.094;4.870;2023-02-11T16:05:22;8.98;;;5.82;;
51495;SDS011;37572;52.094;4.870;2023-02-11T16:07:48;9.80;;;5.97;;
51495;SDS011;37572;52.094;4.870;2023-02-11T16:10:28;8.07;;;4.55;;
51495;SDS011;37572;52.094;4.870;2023-02-11T16:12:55;9.05;;;5.07;;
51495;SDS011;37572;52.094;4.870;2023-02-11T16:17:57;8.98;;;5.07;;
51495;SDS011;37572;52.094;4.870;2023-02-11T16:20:22;10.52;;;5.25;;
51495;SDS011;37572;52.094;4.870;2023-02-11T16:22:48;10.40;;;5.40;;
51495;SDS011;37572;52.094;4.870;2023-02-11T16:25:16;12.90;;;6.53;;
51495;SDS011;37572;52.094;4.870;2023-02-11T16:27:42;10.48;;;5.60;;
51495;SDS011;37572;52.094;4.870;2023-02-11T16:32:55;11.57;;;5.85;;
51495;SDS011;37572;52.094;4.870;2023-02-11T16:35:20;9.87;;;5.03;;
51495;SDS011;37572;52.094;4.870;2023-02-11T16:37:45;11.80;;;5.80;;
51495;SDS011;37572;52.094;4.870;2023-02-11T16:40:11;9.80;;;5.67;;
51495;SDS011;37572;52.094;4.870;2023-02-11T16:42:36;10.95;;;5.70;;
51495;SDS011;37572;52.094;4.870;2023-02-11T16:45:02;12.13;;;5.50;;
51495;SDS011;37572;52.094;4.870;2023-02-11T16:47:27;13.23;;;6.38;;
51495;SDS011;37572;52.094;4.870;2023-02-11T16:49:55;9.38;;;6.15;;
51495;SDS011;37572;52.094;4.870;2023-02-11T16:52:20;11.60;;;5.63;;
51495;SDS011;37572;52.094;4.870;2023-02-11T16:54:45;12.67;;;6.43;;
51495;SDS011;37572;52.094;4.870;2023-02-11T16:57:12;8.50;;;6.50;;